Time;durP1;ratioP1;P1;durP2;ratioP2;P2;SDS_P1;SDS_P2;PMS_P1;PMS_P2;Temp;Humidity;BMP_temperature;BMP_pressure;BME280_temperature;BME280_humidity;BME280_pressure;Samples;Min_cycle;Max_cycle;Signal;HPM_P1;HPM_P2
2023/12/12 00:01:41;;;;;;;;;;;;;;;;;;4980810;28;58606;-70
2023/12/12 00:04:06;;;;;;;;;;;;;;;;;;4982312;28;58413;-70
2023/12/12 00:06:32;;;;;;;;;;;;;;;;;;4982131;28;59738;-70
2023/12/12 00:08:57;;;;;;;;;;;;;;;;;;4977930;28;58981;-71
2023/12/12 00:11:22;;;;;;;;;;;;;;;;;;4981058;28;58821;-71
2023/12/12 00:13:47;;;;;;;;;;;;;;;;;;4983910;28;59486;-72
2023/12/12 00:16:12;;;;;;;;;;;;;;;;;;4984642;28;59088;-71
2023/12/12 00:18:37;;;;;;;;;;;;;;;;;;4985524;28;58666;-70
2023/12/12 00:21:02;;;;;;;;;;;;;;;;;;4985057;28;59345;-71
2023/12/12 00:23:27;;;;;;;;;;;;;;;;;;4986198;28;58409;-71
2023/12/12 00:25:52;;;;;;;;;;;;;;;;;;4984387;28;61470;-70
2023/12/12 00:28:17;;;;;;;;;;;;;;;;;;4982937;28;59042;-72
2023/12/12 00:30:43;;;;;;;;;;;;;;;;;;4984552;28;58424;-71
2023/12/12 00:33:08;;;;;;;;;;;;;;;;;;4984067;28;59653;-70
2023/12/12 00:35:33;;;;;;;;;;;;;;;;;;4984544;28;59177;-72
2023/12/12 00:37:58;;;;;;;;;;;;;;;;;;4985994;28;58291;-73
2023/12/12 00:40:23;;;;;;;;;;;;;;;;;;4983776;28;59965;-73
2023/12/12 00:42:48;;;;;;;;;;;;;;;;;;4983335;28;58402;-73
2023/12/12 00:45:13;;;;;;;;;;;;;;;;;;4986422;28;58492;-71
2023/12/12 00:47:38;;;;;;;;;;;;;;;;;;4984646;28;58645;-72
2023/12/12 00:50:03;;;;;;;;;;;;;;;;;;4984083;28;58688;-72
2023/12/12 00:52:29;;;;;;;;;;;;;;;;;;4980638;28;59339;-70
2023/12/12 00:54:54;;;;;;;;;;;;;;;;;;4983930;28;59901;-70
2023/12/12 00:57:21;;;;;;;;;;;;;;;;;;4984804;28;58394;-69
2023/12/12 00:59:46;;;;;;;;;;;;;;;;;;4982149;28;59632;-71
2023/12/12 01:02:11;;;;;;;;;;;;;;;;;;4983684;28;59891;-70
2023/12/12 01:04:36;;;;;;;;;;;;;;;;;;4983928;28;59419;-69
2023/12/12 01:07:01;;;;;;;;;;;;;;;;;;4984602;28;58939;-70
2023/12/12 01:09:28;;;;;;;;;;;;;;;;;;4986129;28;58317;-70
2023/12/12 01:11:53;;;;;;;;;;;;;;;;;;4979345;28;60331;-69
2023/12/12 01:14:18;;;;;;;;;;;;;;;;;;4982615;28;58701;-70
2023/12/12 01:16:43;;;;;;;;;;;;;;;;;;4985108;28;58450;-71
2023/12/12 01:19:08;;;;;;;;;;;;;;;;;;4982999;28;59453;-71
2023/12/12 01:21:33;;;;;;;;;;;;;;;;;;4982755;28;58392;-71
2023/12/12 01:23:58;;;;;;;;;;;;;;;;;;4985346;28;58570;-70
2023/12/12 01:26:23;;;;;;;;;;;;;;;;;;4982812;28;58880;-69
2023/12/12 01:28:48;;;;;;;;;;;;;;;;;;4984892;28;58565;-70
2023/12/12 01:31:13;;;;;;;;;;;;;;;;;;4978916;28;60915;-69
2023/12/12 01:33:39;;;;;;;;;;;;;;;;;;4981866;28;59187;-70
2023/12/12 01:36:04;;;;;;;;;;;;;;;;;;4982733;28;58178;-72
2023/12/12 01:38:29;;;;;;;;;;;;;;;;;;4982758;28;58489;-72
2023/12/12 01:40:54;;;;;;;;;;;;;;;;;;4980253;28;58920;-73
2023/12/12 01:43:19;;;;;;;;;;;;;;;;;;4980847;28;58384;-73
2023/12/12 01:45:44;;;;;;;;;;;;;;;;;;4982401;28;58505;-74
2023/12/12 01:48:09;;;;;;;;;;;;;;;;;;4981128;28;58382;-74
2023/12/12 01:50:34;;;;;;;;;;;;;;;;;;4981979;28;59181;-73
2023/12/12 01:52:59;;;;;;;;;;;;;;;;;;4980145;28;58506;-73
2023/12/12 01:55:24;;;;;;;;;;;;;;;;;;4982895;28;58329;-73
2023/12/12 01:57:49;;;;;;;;;;;;;;;;;;4982438;28;58594;-73
2023/12/12 02:00:14;;;;;;;;;;;;;;;;;;4979819;28;58529;-73
2023/12/12 02:02:40;;;;;;;;;;;;;;;;;;4982826;28;58439;-73
2023/12/12 02:05:05;;;;;;;;;;;;;;;;;;4981227;28;58363;-73
2023/12/12 02:07:30;;;;;;;;;;;;;;;;;;4980840;28;58720;-73
2023/12/12 02:09:55;;;;;;;;;;;;;;;;;;4981055;28;59575;-73
2023/12/12 02:12:20;;;;;;;;;;;;;;;;;;4980182;28;59818;-73
2023/12/12 02:14:45;;;;;;;;;;;;;;;;;;4982954;28;58362;-73
2023/12/12 02:17:10;;;;;;;;;;;;;;;;;;4982072;28;59443;-73
2023/12/12 02:19:35;;;;;;;;;;;;;;;;;;4979570;28;77653;-74
2023/12/12 02:22:00;;;;;;;;;;;;;;;;;;4980670;28;58392;-74
2023/12/12 02:24:25;;;;;;;;;;;;;;;;;;4981609;28;58438;-74
2023/12/12 02:26:50;;;;;;;;;;;;;;;;;;4980802;28;59012;-75
2023/12/12 02:29:16;;;;;;;;;;;;;;;;;;4981652;28;58349;-73
2023/12/12 02:31:41;;;;;;;;;;;;;;;;;;4981222;28;58748;-75
2023/12/12 02:34:06;;;;;;;;;;;;;;;;;;4979462;28;58463;-73
2023/12/12 02:36:31;;;;;;;;;;;;;;;;;;4981971;28;58436;-75
2023/12/12 02:38:56;;;;;;;;;;;;;;;;;;4981452;28;60147;-75
2023/12/12 02:41:21;;;;;;;;;;;;;;;;;;4979164;28;58448;-76
2023/12/12 02:43:46;;;;;;;;;;;;;;;;;;4981030;28;59407;-75
2023/12/12 02:46:11;;;;;;;;;;;;;;;;;;4980380;28;59005;-72
2023/12/12 02:48:36;;;;;;;;;;;;;;;;;;4981236;28;58414;-73
2023/12/12 02:51:01;;;;;;;;;;;;;;;;;;4980782;28;59079;-71
2023/12/12 02:53:26;;;;;;;;;;;;;;;;;;4981839;28;58382;-71
2023/12/12 02:55:51;;;;;;;;;;;;;;;;;;4979745;28;59381;-74
2023/12/12 02:58:16;;;;;;;;;;;;;;;;;;4980476;28;58664;-75
2023/12/12 03:00:41;;;;;;;;;;;;;;;;;;4979967;28;58426;-73
2023/12/12 03:03:07;;;;;;;;;;;;;;;;;;4980034;28;58436;-74
2023/12/12 03:05:32;;;;;;;;;;;;;;;;;;4980546;28;58748;-72
2023/12/12 03:07:57;;;;;;;;;;;;;;;;;;4980860;28;58486;-73
2023/12/12 03:10:22;;;;;;;;;;;;;;;;;;4983561;28;59349;-73
2023/12/12 03:12:47;;;;;;;;;;;;;;;;;;4984799;28;58578;-74
2023/12/12 03:15:12;;;;;;;;;;;;;;;;;;4985170;28;59590;-74
2023/12/12 03:17:37;;;;;;;;;;;;;;;;;;4979443;28;58510;-74
2023/12/12 03:20:02;;;;;;;;;;;;;;;;;;4982591;28;58602;-73
2023/12/12 03:22:27;;;;;;;;;;;;;;;;;;4982826;28;60262;-73
2023/12/12 03:24:52;;;;;;;;;;;;;;;;;;4982389;28;59045;-73
2023/12/12 03:27:18;;;;;;;;;;;;;;;;;;4984360;28;58399;-74
2023/12/12 03:29:43;;;;;;;;;;;;;;;;;;4982572;28;60197;-73
2023/12/12 03:32:08;;;;;;;;;;;;;;;;;;4980950;28;59079;-74
2023/12/12 03:34:33;;;;;;;;;;;;;;;;;;4983384;28;59787;-74
2023/12/12 03:36:58;;;;;;;;;;;;;;;;;;4981022;28;59092;-74
2023/12/12 03:39:23;;;;;;;;;;;;;;;;;;4984254;28;58363;-74
2023/12/12 03:41:48;;;;;;;;;;;;;;;;;;4982186;28;59491;-74
2023/12/12 03:44:14;;;;;;;;;;;;;;;;;;4982674;28;58687;-74
2023/12/12 03:46:39;;;;;;;;;;;;;;;;;;4983106;28;58384;-74
2023/12/12 03:49:04;;;;;;;;;;;;;;;;;;4985385;28;58603;-74
2023/12/12 03:51:30;;;;;;;;;;;;;;;;;;4985453;28;58631;-73
2023/12/12 03:53:55;;;;;;;;;;;;;;;;;;4985942;28;58477;-73
2023/12/12 03:56:20;;;;;;;;;;;;;;;;;;4985989;28;60657;-73
2023/12/12 03:58:46;;;;;;;;;;;;;;;;;;4985669;28;58292;-73
2023/12/12 04:01:11;;;;;;;;;;;;;;;;;;4983028;28;59412;-74
2023/12/12 04:03:36;;;;;;;;;;;;;;;;;;4984028;28;58448;-73
2023/12/12 04:06:01;;;;;;;;;;;;;;;;;;4987257;28;58431;-73
2023/12/12 04:08:26;;;;;;;;;;;;;;;;;;4988754;28;58495;-74
2023/12/12 04:10:52;;;;;;;;;;;;;;;;;;4986388;28;58985;-73
2023/12/12 04:13:17;;;;;;;;;;;;;;;;;;4980699;28;58539;-74
2023/12/12 04:15:42;;;;;;;;;;;;;;;;;;4984279;28;59401;-74
2023/12/12 04:18:07;;;;;;;;;;;;;;;;;;4981514;28;58487;-74
2023/12/12 04:20:32;;;;;;;;;;;;;;;;;;4984658;28;59294;-75
2023/12/12 04:22:57;;;;;;;;;;;;;;;;;;4985023;28;58928;-74
2023/12/12 04:25:23;;;;;;;;;;;;;;;;;;4984923;28;58404;-74
2023/12/12 04:27:48;;;;;;;;;;;;;;;;;;4984252;28;59775;-74
2023/12/12 04:30:13;;;;;;;;;;;;;;;;;;4985698;28;59604;-74
2023/12/12 04:32:38;;;;;;;;;;;;;;;;;;4984276;28;58700;-74
2023/12/12 04:35:03;;;;;;;;;;;;;;;;;;4985594;28;59423;-74
2023/12/12 04:37:28;;;;;;;;;;;;;;;;;;4985405;28;58904;-74
2023/12/12 04:39:53;;;;;;;;;;;;;;;;;;4984601;28;59458;-74
2023/12/12 04:42:19;;;;;;;;;;;;;;;;;;4983297;28;58430;-74
2023/12/12 04:44:44;;;;;;;;;;;;;;;;;;4981688;28;59454;-76
2023/12/12 04:47:09;;;;;;;;;;;;;;;;;;4984853;28;58413;-75
2023/12/12 04:49:34;;;;;;;;;;;;;;;;;;4983073;28;58846;-74
2023/12/12 04:51:59;;;;;;;;;;;;;;;;;;4982599;28;58477;-74
2023/12/12 04:54:24;;;;;;;;;;;;;;;;;;4984793;28;59385;-74
2023/12/12 04:56:50;;;;;;;;;;;;;;;;;;4984501;28;58919;-74
2023/12/12 04:59:15;;;;;;;;;;;;;;;;;;4983671;28;59494;-74
2023/12/12 05:01:40;;;;;;;;;;;;;;;;;;4980189;28;59382;-74
2023/12/12 05:04:06;;;;;;;;;;;;;;;;;;4984577;28;58905;-74
2023/12/12 05:06:32;;;;;;;;;;;;;;;;;;4983218;28;60255;-70
2023/12/12 05:08:57;;;;;;;;;;;;;;;;;;4984055;28;58740;-71
2023/12/12 05:11:22;;;;;;;;;;;;;;;;;;4982817;28;58466;-70
2023/12/12 05:13:47;;;;;;;;;;;;;;;;;;4983722;28;58475;-71
2023/12/12 05:16:12;;;;;;;;;;;;;;;;;;4983451;28;59893;-74
2023/12/12 05:18:38;;;;;;;;;;;;;;;;;;4984661;28;58347;-73
2023/12/12 05:21:03;;;;;;;;;;;;;;;;;;4984753;28;58693;-73
2023/12/12 05:23:28;;;;;;;;;;;;;;;;;;4980994;28;59232;-73
2023/12/12 05:25:53;;;;;;;;;;;;;;;;;;4984707;28;58657;-73
2023/12/12 05:28:18;;;;;;;;;;;;;;;;;;4981940;28;58867;-73
2023/12/12 05:30:43;;;;;;;;;;;;;;;;;;4983675;28;58526;-74
2023/12/12 05:33:08;;;;;;;;;;;;;;;;;;4983721;28;59368;-74
2023/12/12 05:35:33;;;;;;;;;;;;;;;;;;4984274;28;59846;-73
2023/12/12 05:37:58;;;;;;;;;;;;;;;;;;4978482;28;58371;-74
2023/12/12 05:40:23;;;;;;;;;;;;;;;;;;4984006;28;59769;-74
2023/12/12 05:42:48;;;;;;;;;;;;;;;;;;4983831;28;58489;-74
2023/12/12 05:45:13;;;;;;;;;;;;;;;;;;4984525;28;59164;-74
2023/12/12 05:47:40;;;;;;;;;;;;;;;;;;4983109;28;58774;-73
2023/12/12 05:50:05;;;;;;;;;;;;;;;;;;4983193;28;58366;-73
2023/12/12 05:52:30;;;;;;;;;;;;;;;;;;4980141;28;59535;-73
2023/12/12 05:54:56;;;;;;;;;;;;;;;;;;4980833;28;58948;-74
2023/12/12 05:57:21;;;;;;;;;;;;;;;;;;4984789;28;58470;-74
2023/12/12 05:59:46;;;;;;;;;;;;;;;;;;4980756;28;60482;-74
2023/12/12 06:02:11;;;;;;;;;;;;;;;;;;4982052;28;58972;-74
2023/12/12 06:04:38;;;;;;;;;;;;;;;;;;4983103;28;59371;-74
2023/12/12 06:07:03;;;;;;;;;;;;;;;;;;4981050;28;59065;-74
2023/12/12 06:09:28;;;;;;;;;;;;;;;;;;4984765;28;58483;-74
2023/12/12 06:11:53;;;;;;;;;;;;;;;;;;4982484;28;58740;-73
2023/12/12 06:14:18;;;;;;;;;;;;;;;;;;4983326;28;58688;-74
2023/12/12 06:16:43;;;;;;;;;;;;;;;;;;4983903;28;58370;-73
2023/12/12 06:19:09;;;;;;;;;;;;;;;;;;4978466;28;59770;-73
2023/12/12 06:21:34;;;;;;;;;;;;;;;;;;4979041;28;58997;-74
2023/12/12 06:23:59;;;;;;;;;;;;;;;;;;4982063;28;58155;-73
2023/12/12 06:26:26;;;;;;;;;;;;;;;;;;4977152;28;59206;-74
2023/12/12 06:28:51;;;;;;;;;;;;;;;;;;4980904;28;58617;-74
2023/12/12 06:31:17;;;;;;;;;;;;;;;;;;4980416;28;59489;-74
2023/12/12 06:33:42;;;;;;;;;;;;;;;;;;4977257;28;59618;-74
2023/12/12 06:36:07;;;;;;;;;;;;;;;;;;4977943;28;58415;-74
2023/12/12 06:38:32;;;;;;;;;;;;;;;;;;4977629;28;59319;-74
2023/12/12 06:40:57;;;;;;;;;;;;;;;;;;4975061;28;58674;-73
2023/12/12 06:43:22;;;;;;;;;;;;;;;;;;4975139;28;57766;-74
2023/12/12 06:45:48;;;;;;;;;;;;;;;;;;4978975;28;59500;-74
2023/12/12 06:48:13;;;;;;;;;;;;;;;;;;4976462;28;58545;-73
2023/12/12 06:50:38;;;;;;;;;;;;;;;;;;4978213;28;59460;-74
2023/12/12 06:53:03;;;;;;;;;;;;;;;;;;4974544;28;58940;-73
2023/12/12 06:55:28;;;;;;;;;;;;;;;;;;4975285;28;58371;-74
2023/12/12 06:57:53;;;;;;;;;;;;;;;;;;4978279;28;59464;-74
2023/12/12 07:00:19;;;;;;;;;;;;;;;;;;4980512;28;59674;-74
2023/12/12 07:02:45;;;;;;;;;;;;;;;;;;4982630;28;58354;-74
2023/12/12 07:05:10;;;;;;;;;;;;;;;;;;4982620;28;59362;-73
2023/12/12 07:07:35;;;;;;;;;;;;;;;;;;4980433;28;58371;-73
2023/12/12 07:10:00;;;;;;;;;;;;;;;;;;4979439;28;58581;-74
2023/12/12 07:12:25;;;;;;;;;;;;;;;;;;4982061;28;59267;-74
2023/12/12 07:14:50;;;;;;;;;;;;;;;;;;4979229;28;59353;-73
2023/12/12 07:17:15;;;;;;;;;;;;;;;;;;4980394;28;58841;-73
2023/12/12 07:19:40;;;;;;;;;;;;;;;;;;4977792;28;58748;-74
2023/12/12 07:22:06;;;;;;;;;;;;;;;;;;4977668;28;58978;-74
2023/12/12 07:24:31;;;;;;;;;;;;;;;;;;4983421;28;60088;-74
2023/12/12 07:26:56;;;;;;;;;;;;;;;;;;4984595;28;59086;-71
2023/12/12 07:29:22;;;;;;;;;;;;;;;;;;4980966;28;58429;-72
2023/12/12 07:31:47;;;;;;;;;;;;;;;;;;4981767;28;58858;-71
2023/12/12 07:34:13;;;;;;;;;;;;;;;;;;4981937;28;58150;-71
2023/12/12 07:36:39;;;;;;;;;;;;;;;;;;4984141;28;60090;-75
2023/12/12 07:39:05;;;;;;;;;;;;;;;;;;4983303;28;58905;-74
2023/12/12 07:41:30;;;;;;;;;;;;;;;;;;4984026;28;57888;-75
2023/12/12 07:43:55;;;;;;;;;;;;;;;;;;4984924;28;59027;-75
2023/12/12 07:46:20;;;;;;;;;;;;;;;;;;4984676;28;58855;-75
2023/12/12 07:48:45;;;;;;;;;;;;;;;;;;4985670;28;58556;-75
2023/12/12 07:51:11;;;;;;;;;;;;;;;;;;4984367;28;58610;-75
2023/12/12 07:53:36;;;;;;;;;;;;;;;;;;4985673;28;58348;-75
2023/12/12 07:56:01;;;;;;;;;;;;;;;;;;4985068;28;58441;-74
2023/12/12 07:58:27;;;;;;;;;;;;;;;;;;4984727;28;59523;-74
2023/12/12 08:00:52;;;;;;;;;;;;;;;;;;4981461;28;58375;-76
2023/12/12 08:03:17;;;;;;;;;;;;;;;;;;4984413;28;59348;-77
2023/12/12 08:05:42;;;;;;;;;;;;;;;;;;4984543;28;58992;-76
2023/12/12 08:08:09;;;;;;;;;;;;;;;;;;4981731;28;58387;-75
2023/12/12 08:10:35;;;;;;;;;;;;;;;;;;4986915;28;60327;-76
2023/12/12 08:13:01;;;;;;;;;;;;;;;;;;4982941;28;58527;-76
2023/12/12 08:15:26;;;;;;;;;;;;;;;;;;4984892;28;60351;-78
2023/12/12 08:17:51;;;;;;;;;;;;;;;;;;4982875;28;58835;-76
2023/12/12 08:20:16;;;;;;;;;;;;;;;;;;4984215;28;58622;-75
2023/12/12 08:22:41;;;;;;;;;;;;;;;;;;4983362;28;59323;-75
2023/12/12 08:25:07;;;;;;;;;;;;;;;;;;4982716;28;59388;-75
2023/12/12 08:27:32;;;;;;;;;;;;;;;;;;4983020;28;58352;-75
2023/12/12 08:29:57;;;;;;;;;;;;;;;;;;4984737;28;58498;-75
2023/12/12 08:32:23;;;;;;;;;;;;;;;;;;4984141;28;58699;-75
2023/12/12 08:34:48;;;;;;;;;;;;;;;;;;4984065;28;59392;-77
2023/12/12 08:37:15;;;;;;;;;;;;;;;;;;4983592;28;59618;-72
2023/12/12 08:39:41;;;;;;;;;;;;;;;;;;4981404;28;58437;-71
2023/12/12 08:42:07;;;;;;;;;;;;;;;;;;4983651;28;59501;-72
2023/12/12 08:44:32;;;;;;;;;;;;;;;;;;4983191;28;58757;-72
2023/12/12 08:46:57;;;;;;;;;;;;;;;;;;4982619;28;58344;-70
2023/12/12 08:49:22;;;;;;;;;;;;;;;;;;4982958;28;59348;-69
2023/12/12 08:51:47;;;;;;;;;;;;;;;;;;4983541;28;59080;-71
2023/12/12 08:54:13;;;;;;;;;;;;;;;;;;4985693;28;58356;-71
2023/12/12 08:56:38;;;;;;;;;;;;;;;;;;4982007;28;58942;-71
2023/12/12 08:59:03;;;;;;;;;;;;;;;;;;4984126;28;58518;-71
2023/12/12 09:01:28;;;;;;;;;;;;;;;;;;4981973;28;59418;-72
2023/12/12 09:03:53;;;;;;;;;;;;;;;;;;4983710;28;58921;-72
2023/12/12 09:06:18;;;;;;;;;;;;;;;;;;4982121;28;58759;-72
2023/12/12 09:08:43;;;;;;;;;;;;;;;;;;4981013;28;59605;-72
2023/12/12 09:11:08;;;;;;;;;;;;;;;;;;4981275;28;58602;-72
2023/12/12 09:13:33;;;;;;;;;;;;;;;;;;4983671;28;58606;-73
2023/12/12 09:15:59;;;;;;;;;;;;;;;;;;4982402;28;58975;-72
2023/12/12 09:18:24;;;;;;;;;;;;;;;;;;4984441;28;58394;-71
2023/12/12 09:20:49;;;;;;;;;;;;;;;;;;4982864;28;59350;-71
2023/12/12 09:23:14;;;;;;;;;;;;;;;;;;4980269;28;58973;-71
2023/12/12 09:25:40;;;;;;;;;;;;;;;;;;4983017;28;58515;-71
2023/12/12 09:28:05;;;;;;;;;;;;;;;;;;4983871;28;59281;-71
2023/12/12 09:30:30;;;;;;;;;;;;;;;;;;4982691;28;58939;-71
2023/12/12 09:32:55;;;;;;;;;;;;;;;;;;4983245;28;58375;-71
2023/12/12 09:35:20;;;;;;;;;;;;;;;;;;4983424;28;60179;-71
2023/12/12 09:37:45;;;;;;;;;;;;;;;;;;4983616;28;58627;-72
2023/12/12 09:40:11;;;;;;;;;;;;;;;;;;4980923;28;58486;-71
2023/12/12 09:42:36;;;;;;;;;;;;;;;;;;4983400;28;58823;-72
2023/12/12 09:45:01;;;;;;;;;;;;;;;;;;4983652;28;58763;-71
2023/12/12 09:47:26;;;;;;;;;;;;;;;;;;4984291;28;61228;-71
2023/12/12 09:49:51;;;;;;;;;;;;;;;;;;4982161;28;59143;-71
2023/12/12 09:52:16;;;;;;;;;;;;;;;;;;4983262;28;58371;-71
2023/12/12 09:54:42;;;;;;;;;;;;;;;;;;4984080;28;59295;-72
2023/12/12 09:57:07;;;;;;;;;;;;;;;;;;4983548;28;58419;-71
2023/12/12 09:59:32;;;;;;;;;;;;;;;;;;4985050;28;59497;-72
2023/12/12 10:01:57;;;;;;;;;;;;;;;;;;4982292;28;58752;-72
2023/12/12 10:04:22;;;;;;;;;;;;;;;;;;4984577;28;57985;-72
2023/12/12 10:06:47;;;;;;;;;;;;;;;;;;4986717;28;59758;-72
2023/12/12 10:09:12;;;;;;;;;;;;;;;;;;4985876;28;59826;-72
2023/12/12 10:11:37;;;;;;;;;;;;;;;;;;4984997;28;58412;-71
2023/12/12 10:14:02;;;;;;;;;;;;;;;;;;4982299;28;58453;-71
2023/12/12 10:16:30;;;;;;;;;;;;;;;;;;4981795;28;58922;-71
2023/12/12 10:18:56;;;;;;;;;;;;;;;;;;4981028;28;58478;-72
2023/12/12 10:21:21;;;;;;;;;;;;;;;;;;4983551;28;59952;-72
2023/12/12 10:23:46;;;;;;;;;;;;;;;;;;4983861;28;58411;-72
2023/12/12 10:26:11;;;;;;;;;;;;;;;;;;4983992;28;58696;-74
2023/12/12 10:28:37;;;;;;;;;;;;;;;;;;4982831;28;58141;-76
2023/12/12 10:31:02;;;;;;;;;;;;;;;;;;4981950;28;58297;-74
2023/12/12 10:33:27;;;;;;;;;;;;;;;;;;4980129;28;59413;-75
2023/12/12 10:35:53;;;;;;;;;;;;;;;;;;4982591;28;59099;-75
2023/12/12 10:38:18;;;;;;;;;;;;;;;;;;4982135;28;58378;-78
2023/12/12 10:40:43;;;;;;;;;;;;;;;;;;4982871;28;60523;-78
2023/12/12 10:43:08;;;;;;;;;;;;;;;;;;4982547;28;58418;-77
2023/12/12 10:45:33;;;;;;;;;;;;;;;;;;4983416;28;59353;-76
2023/12/12 10:47:58;;;;;;;;;;;;;;;;;;4983136;28;58731;-77
2023/12/12 10:50:23;;;;;;;;;;;;;;;;;;4983104;28;58370;-77
2023/12/12 10:52:48;;;;;;;;;;;;;;;;;;4982707;28;60620;-76
2023/12/12 10:55:13;;;;;;;;;;;;;;;;;;4983494;28;58810;-77
2023/12/12 10:57:39;;;;;;;;;;;;;;;;;;4982559;28;58452;-75
2023/12/12 11:00:11;;;;;;;;;;;;;;;;;;4981630;28;60636;-76
2023/12/12 11:02:36;;;;;;;;;;;;;;;;;;4981646;28;58189;-77
2023/12/12 11:05:01;;;;;;;;;;;;;;;;;;4983193;28;58421;-76
2023/12/12 11:07:26;;;;;;;;;;;;;;;;;;4983150;28;58694;-76
2023/12/12 11:09:51;;;;;;;;;;;;;;;;;;4983710;28;58219;-76
2023/12/12 11:12:16;;;;;;;;;;;;;;;;;;4982643;28;59507;-78
2023/12/12 11:14:41;;;;;;;;;;;;;;;;;;4982345;28;58902;-75
2023/12/12 11:17:06;;;;;;;;;;;;;;;;;;4983626;28;58648;-75
2023/12/12 11:19:32;;;;;;;;;;;;;;;;;;4981306;28;60379;-76
2023/12/12 11:21:57;;;;;;;;;;;;;;;;;;4981966;28;59768;-74
2023/12/12 11:24:22;;;;;;;;;;;;;;;;;;4983342;28;59423;-75
2023/12/12 11:26:47;;;;;;;;;;;;;;;;;;4981983;28;59428;-74
2023/12/12 11:29:13;;;;;;;;;;;;;;;;;;4979502;28;58414;-74
2023/12/12 11:31:39;;;;;;;;;;;;;;;;;;4981369;28;59280;-73
2023/12/12 11:34:04;;;;;;;;;;;;;;;;;;4981996;28;58688;-73
2023/12/12 11:36:29;;;;;;;;;;;;;;;;;;4982870;28;58470;-73
2023/12/12 11:38:54;;;;;;;;;;;;;;;;;;4981823;28;59344;-72
2023/12/12 11:41:19;;;;;;;;;;;;;;;;;;4980662;28;58849;-75
2023/12/12 11:43:45;;;;;;;;;;;;;;;;;;4978872;28;58108;-73
2023/12/12 11:46:10;;;;;;;;;;;;;;;;;;4980569;28;59025;-73
2023/12/12 11:48:35;;;;;;;;;;;;;;;;;;4982029;28;58475;-73
2023/12/12 11:51:00;;;;;;;;;;;;;;;;;;4980356;28;58510;-73
2023/12/12 11:53:25;;;;;;;;;;;;;;;;;;4980727;28;59880;-74
2023/12/12 11:55:50;;;;;;;;;;;;;;;;;;4981271;28;58248;-74
2023/12/12 11:58:15;;;;;;;;;;;;;;;;;;4980264;28;59377;-74
2023/12/12 12:00:41;;;;;;;;;;;;;;;;;;4979579;28;59451;-73
2023/12/12 12:03:08;;;;;;;;;;;;;;;;;;4981734;28;58424;-74
2023/12/12 12:05:33;;;;;;;;;;;;;;;;;;4980873;28;59600;-74
2023/12/12 12:07:58;;;;;;;;;;;;;;;;;;4983871;28;58359;-73
2023/12/12 12:10:24;;;;;;;;;;;;;;;;;;4985548;28;59624;-74
2023/12/12 12:12:49;;;;;;;;;;;;;;;;;;4984567;28;59629;-73
2023/12/12 12:15:14;;;;;;;;;;;;;;;;;;4987816;28;58462;-72
2023/12/12 12:17:39;;;;;;;;;;;;;;;;;;4982945;28;59473;-74
2023/12/12 12:20:04;;;;;;;;;;;;;;;;;;4983301;28;59820;-73
2023/12/12 12:22:29;;;;;;;;;;;;;;;;;;4984485;28;58323;-74
2023/12/12 12:24:55;;;;;;;;;;;;;;;;;;4984063;28;59559;-74
2023/12/12 12:27:20;;;;;;;;;;;;;;;;;;4984520;28;59271;-74
2023/12/12 12:29:45;;;;;;;;;;;;;;;;;;4985573;28;59901;-74
2023/12/12 12:32:10;;;;;;;;;;;;;;;;;;4982714;28;60908;-73
2023/12/12 12:34:36;;;;;;;;;;;;;;;;;;4984599;28;58034;-73
2023/12/12 12:37:02;;;;;;;;;;;;;;;;;;4986043;28;59495;-73
2023/12/12 12:39:27;;;;;;;;;;;;;;;;;;4984385;28;58886;-74
2023/12/12 12:41:52;;;;;;;;;;;;;;;;;;4983754;28;58473;-73
2023/12/12 12:44:17;;;;;;;;;;;;;;;;;;4986327;28;58512;-74
2023/12/12 12:46:42;;;;;;;;;;;;;;;;;;4981820;28;58812;-73
2023/12/12 12:49:07;;;;;;;;;;;;;;;;;;4986039;28;58503;-73
2023/12/12 12:51:32;;;;;;;;;;;;;;;;;;4985145;28;58853;-74
2023/12/12 12:53:57;;;;;;;;;;;;;;;;;;4984931;28;58482;-73
2023/12/12 12:56:23;;;;;;;;;;;;;;;;;;4984608;28;58406;-74
2023/12/12 12:58:48;;;;;;;;;;;;;;;;;;4983988;28;58903;-73
2023/12/12 13:01:13;;;;;;;;;;;;;;;;;;4983694;28;58479;-74
2023/12/12 13:03:38;;;;;;;;;;;;;;;;;;4984386;28;59433;-74
2023/12/12 13:06:04;;;;;;;;;;;;;;;;;;4984963;28;59398;-73
2023/12/12 13:08:30;;;;;;;;;;;;;;;;;;4986198;28;58372;-74
2023/12/12 13:10:55;;;;;;;;;;;;;;;;;;4984130;28;58860;-73
2023/12/12 13:13:20;;;;;;;;;;;;;;;;;;4984441;28;58597;-73
2023/12/12 13:15:45;;;;;;;;;;;;;;;;;;4984124;28;59296;-74
2023/12/12 13:18:10;;;;;;;;;;;;;;;;;;4983261;28;58966;-74
2023/12/12 13:20:35;;;;;;;;;;;;;;;;;;4983572;28;58809;-73
2023/12/12 13:23:00;;;;;;;;;;;;;;;;;;4982577;28;58498;-73
2023/12/12 13:25:25;;;;;;;;;;;;;;;;;;4983098;28;58914;-73
2023/12/12 13:27:50;;;;;;;;;;;;;;;;;;4983183;28;63237;-73
2023/12/12 13:30:15;;;;;;;;;;;;;;;;;;4980200;28;59342;-73
2023/12/12 13:32:40;;;;;;;;;;;;;;;;;;4985893;28;58453;-73
2023/12/12 13:35:07;;;;;;;;;;;;;;;;;;4984756;28;60302;-73
2023/12/12 13:37:32;;;;;;;;;;;;;;;;;;4980378;28;58950;-71
2023/12/12 13:39:57;;;;;;;;;;;;;;;;;;4983416;28;58421;-71
2023/12/12 13:42:23;;;;;;;;;;;;;;;;;;4985283;28;58524;-71
2023/12/12 13:44:48;;;;;;;;;;;;;;;;;;4983296;28;58711;-72
2023/12/12 13:47:13;;;;;;;;;;;;;;;;;;4983594;28;58336;-71
2023/12/12 13:49:38;;;;;;;;;;;;;;;;;;4981305;28;60107;-71
2023/12/12 13:52:03;;;;;;;;;;;;;;;;;;4984132;28;59391;-72
2023/12/12 13:54:28;;;;;;;;;;;;;;;;;;4985008;28;59502;-71
2023/12/12 13:56:53;;;;;;;;;;;;;;;;;;4984847;28;59228;-71
2023/12/12 13:59:18;;;;;;;;;;;;;;;;;;4983039;28;58437;-71
2023/12/12 14:01:44;;;;;;;;;;;;;;;;;;4982810;28;59442;-71
2023/12/12 14:04:09;;;;;;;;;;;;;;;;;;4981610;28;59853;-71
2023/12/12 14:06:34;;;;;;;;;;;;;;;;;;4983376;28;58387;-71
2023/12/12 14:08:59;;;;;;;;;;;;;;;;;;4984745;28;59433;-71
2023/12/12 14:11:26;;;;;;;;;;;;;;;;;;4982723;28;58813;-71
2023/12/12 14:13:51;;;;;;;;;;;;;;;;;;4984745;28;58385;-71
2023/12/12 14:16:16;;;;;;;;;;;;;;;;;;4982819;28;59101;-71
2023/12/12 14:18:41;;;;;;;;;;;;;;;;;;4982464;28;58617;-71
2023/12/12 14:21:06;;;;;;;;;;;;;;;;;;4983541;28;60380;-71
2023/12/12 14:23:33;;;;;;;;;;;;;;;;;;4983345;28;58871;-71
2023/12/12 14:25:58;;;;;;;;;;;;;;;;;;4984490;28;58344;-71
2023/12/12 14:28:23;;;;;;;;;;;;;;;;;;4984332;28;59856;-71
2023/12/12 14:30:48;;;;;;;;;;;;;;;;;;4981425;28;59658;-72
2023/12/12 14:33:13;;;;;;;;;;;;;;;;;;4983453;28;58177;-71
2023/12/12 14:35:38;;;;;;;;;;;;;;;;;;4982760;28;59450;-70
2023/12/12 14:38:03;;;;;;;;;;;;;;;;;;4982508;28;58468;-71
2023/12/12 14:40:29;;;;;;;;;;;;;;;;;;4982874;28;61043;-70
2023/12/12 14:42:54;;;;;;;;;;;;;;;;;;4982898;28;58387;-71
2023/12/12 14:45:19;;;;;;;;;;;;;;;;;;4983564;28;58343;-71
2023/12/12 14:47:45;;;;;;;;;;;;;;;;;;4983361;28;59392;-73
2023/12/12 14:50:10;;;;;;;;;;;;;;;;;;4981918;28;58746;-72
2023/12/12 14:52:35;;;;;;;;;;;;;;;;;;4983153;28;58467;-73
2023/12/12 14:55:01;;;;;;;;;;;;;;;;;;4983530;28;59509;-72
2023/12/12 14:57:26;;;;;;;;;;;;;;;;;;4982942;28;58992;-74
2023/12/12 14:59:51;;;;;;;;;;;;;;;;;;4983005;28;58640;-72
2023/12/12 15:02:16;;;;;;;;;;;;;;;;;;4982890;28;59772;-73
2023/12/12 15:04:41;;;;;;;;;;;;;;;;;;4985685;28;58458;-73
2023/12/12 15:07:06;;;;;;;;;;;;;;;;;;4984678;28;59346;-73
2023/12/12 15:09:31;;;;;;;;;;;;;;;;;;4983034;28;59262;-72
2023/12/12 15:11:56;;;;;;;;;;;;;;;;;;4982197;28;58364;-77
2023/12/12 15:14:22;;;;;;;;;;;;;;;;;;4981855;28;58486;-76
2023/12/12 15:16:47;;;;;;;;;;;;;;;;;;4983265;28;58880;-71
2023/12/12 15:19:13;;;;;;;;;;;;;;;;;;4982816;28;59796;-71
2023/12/12 15:21:38;;;;;;;;;;;;;;;;;;4980780;28;58875;-71
2023/12/12 15:24:03;;;;;;;;;;;;;;;;;;4984361;28;58430;-74
2023/12/12 15:26:28;;;;;;;;;;;;;;;;;;4983292;28;60368;-73
2023/12/12 15:28:55;;;;;;;;;;;;;;;;;;4979191;28;58246;-73
2023/12/12 15:31:21;;;;;;;;;;;;;;;;;;4982105;28;58174;-73
2023/12/12 15:33:46;;;;;;;;;;;;;;;;;;4983508;28;59195;-73
2023/12/12 15:36:11;;;;;;;;;;;;;;;;;;4979081;28;58620;-74
2023/12/12 15:38:36;;;;;;;;;;;;;;;;;;4982085;28;58575;-72
2023/12/12 15:41:02;;;;;;;;;;;;;;;;;;4979655;28;58932;-71
2023/12/12 15:43:27;;;;;;;;;;;;;;;;;;4982660;28;58432;-71
2023/12/12 15:45:52;;;;;;;;;;;;;;;;;;4985134;28;58405;-71
2023/12/12 15:48:17;;;;;;;;;;;;;;;;;;4986930;28;58521;-71
2023/12/12 15:50:43;;;;;;;;;;;;;;;;;;4985813;28;58307;-71
2023/12/12 15:53:08;;;;;;;;;;;;;;;;;;4982734;28;59219;-70
2023/12/12 15:55:33;;;;;;;;;;;;;;;;;;4983942;28;58400;-69
2023/12/12 15:57:58;;;;;;;;;;;;;;;;;;4988059;28;58339;-69
2023/12/12 16:00:24;;;;;;;;;;;;;;;;;;4986261;28;60411;-70
2023/12/12 16:02:49;;;;;;;;;;;;;;;;;;4986509;28;58380;-72
2023/12/12 16:05:14;;;;;;;;;;;;;;;;;;4987223;28;59717;-72
2023/12/12 16:07:39;;;;;;;;;;;;;;;;;;4986211;28;58908;-70
2023/12/12 16:10:06;;;;;;;;;;;;;;;;;;4984891;28;58609;-72
2023/12/12 16:12:31;;;;;;;;;;;;;;;;;;4986020;28;59654;-70
2023/12/12 16:14:56;;;;;;;;;;;;;;;;;;4984862;28;58881;-69
2023/12/12 16:17:22;;;;;;;;;;;;;;;;;;4984348;28;58453;-69
2023/12/12 16:19:47;;;;;;;;;;;;;;;;;;4985234;28;59717;-72
2023/12/12 16:22:12;;;;;;;;;;;;;;;;;;4983751;28;58618;-71
2023/12/12 16:24:38;;;;;;;;;;;;;;;;;;4985389;28;59337;-71
2023/12/12 16:27:03;;;;;;;;;;;;;;;;;;4984991;28;58900;-71
2023/12/12 16:29:29;;;;;;;;;;;;;;;;;;4984313;28;58656;-71
2023/12/12 16:31:54;;;;;;;;;;;;;;;;;;4982093;28;60357;-71